Time;durP1;ratioP1;P1;durP2;ratioP2;P2;SDS_P1;SDS_P2;PMS_P1;PMS_P2;Temp;Humidity;BMP_temperature;BMP_pressure;BME280_temperature;BME280_humidity;BME280_pressure;Samples;Min_cycle;Max_cycle;Signal;HPM_P1;HPM_P2
2023/08/24 00:00:12;;;;;;;0.00;0.00;;;;;;;18.56;100.00;101744.34;5055798;28;20033;-45
2023/08/24 00:02:37;;;;;;;0.00;0.00;;;;;;;18.56;100.00;101744.34;5073325;28;20114;-47
2023/08/24 00:05:03;;;;;;;0.00;0.00;;;;;;;18.54;100.00;101754.59;5073156;28;20024;-46
2023/08/24 00:07:29;;;;;;;0.00;0.00;;;;;;;18.56;100.00;101744.34;5073665;28;20056;-47
2023/08/24 00:09:54;;;;;;;0.00;0.00;;;;;;;18.58;100.00;101750.38;5080526;28;20437;-46
2023/08/24 00:12:19;;;;;;;0.00;0.00;;;;;;;18.61;100.00;101755.41;5082368;28;20478;-46
2023/08/24 00:14:45;;;;;;;0.00;0.00;;;;;;;18.57;100.00;101753.34;5084041;28;20450;-47
2023/08/24 00:17:10;;;;;;;0.00;0.00;;;;;;;18.51;100.00;101755.03;5080386;28;20040;-45
2023/08/24 00:19:36;;;;;;;0.00;0.00;;;;;;;18.54;100.00;101754.59;5075330;28;20032;-44
2023/08/24 00:22:01;;;;;;;0.00;0.00;;;;;;;18.49;100.00;101751.69;5055922;28;20138;-46
2023/08/24 00:24:27;;;;;;;0.00;0.00;;;;;;;18.49;100.00;101746.22;5062732;28;20024;-47
2023/08/24 00:26:52;;;;;;;0.00;0.00;;;;;;;18.47;100.00;101737.41;5081855;28;20028;-49
2023/08/24 00:29:17;;;;;;;0.00;0.00;;;;;;;18.48;100.00;101749.97;5081088;28;20024;-47
2023/08/24 00:31:43;;;;;;;0.00;0.00;;;;;;;18.45;100.00;101744.13;5077855;28;20115;-48
2023/08/24 00:34:09;;;;;;;0.00;0.00;;;;;;;18.41;100.00;101735.56;5072715;28;20515;-48
2023/08/24 00:36:34;;;;;;;0.00;0.00;;;;;;;18.43;100.00;101737.00;5074304;28;20032;-48
2023/08/24 00:39:00;;;;;;;0.00;0.00;;;;;;;18.49;100.00;101740.78;5080557;28;20036;-48
2023/08/24 00:41:25;;;;;;;0.00;0.00;;;;;;;18.56;100.00;101738.88;5075912;28;20032;-47
2023/08/24 00:43:51;;;;;;;0.00;0.00;;;;;;;18.59;100.00;101748.53;5088998;28;20101;-44
2023/08/24 00:46:16;;;;;;;0.00;0.00;;;;;;;18.58;100.00;101755.84;5075002;28;20124;-45
2023/08/24 00:48:42;;;;;;;0.00;0.00;;;;;;;18.60;100.00;101756.47;5070714;28;20446;-44
2023/08/24 00:51:07;;;;;;;0.00;0.00;;;;;;;18.60;100.00;101761.94;5076419;28;20028;-44
2023/08/24 00:53:33;;;;;;;0.00;0.00;;;;;;;18.57;100.00;101765.09;5072779;28;20040;-44
2023/08/24 00:55:59;;;;;;;0.00;0.00;;;;;;;18.59;100.00;101768.44;5073535;28;20056;-45
2023/08/24 00:58:26;;;;;;;0.00;0.00;;;;;;;18.66;100.00;101768.41;5054708;28;20047;-44
2023/08/24 01:00:53;;;;;;;0.00;0.00;;;;;;;18.69;100.00;101769.88;5082529;28;20036;-46
2023/08/24 01:03:18;;;;;;;0.00;0.00;;;;;;;18.74;100.00;101751.81;5062082;28;20028;-46
2023/08/24 01:05:45;;;;;;;0.00;0.00;;;;;;;18.78;100.00;101749.56;5081964;28;20048;-45
2023/08/24 01:08:11;;;;;;;0.00;0.00;;;;;;;18.79;100.00;101738.41;5073556;28;20094;-47
2023/08/24 01:10:41;;;;;;;0.00;0.00;;;;;;;18.71;100.00;101733.16;5055352;28;20031;-47
2023/08/24 01:13:10;;;;;;;0.00;0.00;;;;;;;18.57;100.00;101731.53;5056015;28;20072;-48
2023/08/24 01:15:51;;;;;;;0.00;0.00;;;;;;;18.46;100.00;101752.09;5061767;28;20032;-47
2023/08/24 01:18:20;;;;;;;0.00;0.00;;;;;;;18.32;100.00;101772.22;5054341;28;20517;-50
2023/08/24 01:20:47;;;;;;;0.00;0.00;;;;;;;18.23;100.00;101768.06;5054323;28;20224;-44
2023/08/24 01:23:34;;;;;;;0.00;0.00;;;;;;;18.18;100.00;101769.50;5073537;28;20032;-50
2023/08/24 01:26:08;;;;;;;0.00;0.00;;;;;;;18.21;100.00;101760.91;5081576;28;20061;-49
2023/08/24 01:28:33;;;;;;;0.00;0.00;;;;;;;18.15;100.00;101756.31;5074833;28;20114;-47
2023/08/24 01:30:59;;;;;;;0.00;0.00;;;;;;;18.02;100.00;101750.88;5062913;28;20108;-49
2023/08/24 01:33:25;;;;;;;0.00;0.00;;;;;;;17.91;100.00;101740.59;5075877;28;20024;-48
2023/08/24 01:35:50;;;;;;;0.00;0.00;;;;;;;17.80;100.00;101741.19;5071367;28;20043;-48
2023/08/24 01:38:15;;;;;;;0.00;0.00;;;;;;;17.72;100.00;101734.03;5079431;28;20035;-48
2023/08/24 01:40:57;;;;;;;0.00;0.00;;;;;;;17.56;100.00;101729.84;5058707;28;20095;-48
2023/08/24 01:43:26;;;;;;;0.00;0.00;;;;;;;17.52;100.00;101748.47;5070403;28;20059;-48
2023/08/24 01:45:52;;;;;;;0.00;0.00;;;;;;;17.49;100.00;101750.78;5053765;28;20028;-48
2023/08/24 01:48:17;;;;;;;0.00;0.00;;;;;;;17.38;100.00;101748.63;5071700;28;20031;-50
2023/08/24 01:50:43;;;;;;;0.00;0.00;;;;;;;17.43;100.00;101746.13;5053577;28;20017;-50
2023/08/24 01:53:08;;;;;;;0.00;0.00;;;;;;;17.27;100.00;101737.31;5053469;28;20043;-48
2023/08/24 01:55:34;;;;;;;0.00;0.00;;;;;;;17.27;100.00;101740.03;5053552;28;20031;-49
2023/08/24 01:58:00;;;;;;;0.00;0.00;;;;;;;17.20;100.00;101733.72;5071648;28;20374;-48
2023/08/24 02:00:25;;;;;;;0.00;0.00;;;;;;;17.28;100.00;101727.28;5071027;28;20021;-48
2023/08/24 02:02:50;;;;;;;0.00;0.00;;;;;;;17.27;100.00;101721.00;5070982;28;20028;-49
2023/08/24 02:05:16;;;;;;;0.00;0.00;;;;;;;17.25;100.00;101714.91;5071351;28;20464;-48
2023/08/24 02:07:41;;;;;;;0.00;0.00;;;;;;;17.29;100.00;101708.00;5070716;28;20031;-50
2023/08/24 02:10:07;;;;;;;0.00;0.00;;;;;;;17.25;100.00;101701.31;5071083;28;20027;-49
2023/08/24 02:12:32;;;;;;;0.00;0.00;;;;;;;17.30;100.00;101697.97;5070965;28;20479;-49
2023/08/24 02:14:58;;;;;;;0.00;0.00;;;;;;;17.38;100.00;101691.47;5071653;28;20389;-50
2023/08/24 02:17:23;;;;;;;0.00;0.00;;;;;;;17.31;100.00;101681.44;5071004;28;20454;-47
2023/08/24 02:19:49;;;;;;;0.00;0.00;;;;;;;17.45;100.00;101678.72;5087559;28;20019;-47
2023/08/24 02:22:14;;;;;;;0.00;0.00;;;;;;;17.42;100.00;101684.59;5086746;28;20386;-47
2023/08/24 02:24:40;;;;;;;0.00;0.00;;;;;;;17.47;100.00;101690.25;5099569;28;20028;-49
2023/08/24 02:27:05;;;;;;;0.00;0.00;;;;;;;17.55;100.00;101684.63;5096078;28;20028;-50
2023/08/24 02:29:30;;;;;;;0.00;0.00;;;;;;;17.58;100.00;101688.81;5076275;28;20111;-46
2023/08/24 02:31:56;;;;;;;0.00;0.00;;;;;;;17.51;100.00;101686.94;5084429;28;20024;-46
2023/08/24 02:34:21;;;;;;;0.00;0.00;;;;;;;17.45;100.00;101679.56;5075542;28;20032;-47
2023/08/24 02:36:47;;;;;;;0.00;0.00;;;;;;;17.39;100.00;101693.19;5070757;28;20486;-47
2023/08/24 02:39:12;;;;;;;0.00;0.00;;;;;;;17.34;100.00;101691.06;5070738;28;20093;-47
2023/08/24 02:41:37;;;;;;;0.00;0.00;;;;;;;17.46;100.00;101699.47;5071815;28;20108;-47
2023/08/24 02:44:03;;;;;;;0.00;0.00;;;;;;;17.44;100.00;101699.69;5072458;28;20091;-47
2023/08/24 02:46:28;;;;;;;0.00;0.00;;;;;;;17.51;100.00;101683.38;5074112;28;20032;-47
2023/08/24 02:48:54;;;;;;;0.00;0.00;;;;;;;17.57;100.00;101671.66;5090689;28;20116;-49
2023/08/24 02:51:21;;;;;;;0.00;0.00;;;;;;;17.65;100.00;101671.44;5055732;28;20029;-47
2023/08/24 02:53:47;;;;;;;0.00;0.00;;;;;;;17.64;100.00;101666.19;5090813;28;20103;-48
2023/08/24 02:56:12;;;;;;;0.00;0.00;;;;;;;17.66;100.00;101656.75;5076189;28;20102;-47
2023/08/24 02:58:38;;;;;;;0.00;0.00;;;;;;;17.66;100.00;101654.03;5071484;28;20111;-48
2023/08/24 03:01:07;;;;;;;0.00;0.00;;;;;;;17.62;100.00;101647.34;5079059;28;20048;-48
2023/08/24 03:03:33;;;;;;;0.00;0.00;;;;;;;17.55;100.00;101651.94;5079915;28;20084;-47
2023/08/24 03:06:07;;;;;;;0.00;0.00;;;;;;;17.53;100.00;101651.31;5077128;28;20467;-47
2023/08/24 03:08:33;;;;;;;0.00;0.00;;;;;;;17.53;100.00;101643.97;5071255;28;20063;-47
2023/08/24 03:10:59;;;;;;;0.00;0.00;;;;;;;17.48;100.00;101640.22;5076129;28;20024;-47
2023/08/24 03:13:25;;;;;;;0.00;0.00;;;;;;;17.42;100.00;101635.63;5070236;28;20174;-46
2023/08/24 03:15:51;;;;;;;0.00;0.00;;;;;;;17.34;100.00;101634.75;5071469;28;20115;-50
2023/08/24 03:18:17;;;;;;;0.00;0.00;;;;;;;17.36;100.00;101642.72;5058489;28;20036;-48
2023/08/24 03:20:45;;;;;;;0.00;0.00;;;;;;;17.39;100.00;101645.03;5070122;28;20059;-47
2023/08/24 03:23:10;;;;;;;;;;;;;;;17.41;100.00;101640.22;5078003;28;20025;-47
2023/08/24 03:25:37;;;;;;;0.00;0.00;;;;;;;17.40;100.00;101643.97;5081056;28;20043;-47
2023/08/24 03:28:03;;;;;;;0.00;0.00;;;;;;;17.44;100.00;101639.81;5074925;28;20404;-50
2023/08/24 03:30:28;;;;;;;0.00;0.00;;;;;;;17.48;100.00;101645.66;5070087;28;20025;-50
2023/08/24 03:32:54;;;;;;;0.00;0.00;;;;;;;17.43;100.00;101640.88;5069326;28;20501;-50
2023/08/24 03:35:19;;;;;;;0.00;0.00;;;;;;;17.44;100.00;101647.13;5055790;28;20467;-49
2023/08/24 03:37:44;;;;;;;0.00;0.00;;;;;;;17.45;100.00;101637.91;5079373;28;20037;-50
2023/08/24 03:40:11;;;;;;;0.00;0.00;;;;;;;17.45;100.00;101635.19;5069050;28;20301;-46
2023/08/24 03:42:36;;;;;;;0.00;0.00;;;;;;;17.47;100.00;101631.22;5062949;28;20028;-46
2023/08/24 03:45:02;;;;;;;0.00;0.00;;;;;;;17.48;100.00;101640.22;5069883;28;20111;-46
2023/08/24 03:47:27;;;;;;;0.00;0.00;;;;;;;17.43;100.00;101626.41;5069973;28;20248;-47
2023/08/24 03:49:52;;;;;;;0.00;0.00;;;;;;;17.42;100.00;101630.19;5069655;28;20127;-47
2023/08/24 03:52:18;;;;;;;0.00;0.00;;;;;;;17.45;100.00;101637.91;5069378;28;20233;-46
2023/08/24 03:54:43;;;;;;;0.00;0.00;;;;;;;17.45;100.00;101629.75;5070020;28;20138;-51
2023/08/24 03:57:08;;;;;;;0.00;0.00;;;;;;;17.46;100.00;101636.88;5070246;28;20090;-48
2023/08/24 03:59:34;;;;;;;0.00;0.00;;;;;;;17.45;100.00;101630.59;5070035;28;20469;-47
2023/08/24 04:02:02;;;;;;;0.00;0.00;;;;;;;17.41;100.00;101628.50;5051586;28;20091;-51
2023/08/24 04:04:27;;;;;;;0.00;0.00;;;;;;;17.40;100.00;101637.69;5069746;28;20032;-49
2023/08/24 04:06:53;;;;;;;0.00;0.00;;;;;;;17.36;100.00;101636.47;5069622;28;20031;-49
2023/08/24 04:09:18;;;;;;;0.00;0.00;;;;;;;17.37;100.00;101627.25;5069334;28;20104;-48
2023/08/24 04:11:44;;;;;;;0.00;0.00;;;;;;;17.38;100.00;101637.06;5069451;28;20024;-46
2023/08/24 04:14:09;;;;;;;0.00;0.00;;;;;;;17.37;100.00;101630.78;5070690;28;20028;-48
2023/08/24 04:16:34;;;;;;;0.00;0.00;;;;;;;17.34;100.00;101634.75;5070523;28;20093;-48
2023/08/24 04:19:00;;;;;;;0.00;0.00;;;;;;;17.33;100.00;101633.09;5068524;28;20060;-49
2023/08/24 04:21:25;;;;;;;0.00;0.00;;;;;;;17.36;100.00;101625.56;5069044;28;20016;-49
2023/08/24 04:23:50;;;;;;;0.00;0.00;;;;;;;17.37;100.00;101632.69;5068578;28;20466;-47
2023/08/24 04:26:16;;;;;;;0.00;0.00;;;;;;;17.31;100.00;101635.19;5068794;28;20104;-47
2023/08/24 04:28:41;;;;;;;0.00;0.00;;;;;;;17.28;100.00;101627.44;5072620;28;20033;-46
2023/08/24 04:31:07;;;;;;;0.08;0.00;;;;;;;17.25;100.00;101627.84;5067214;28;20032;-45
2023/08/24 04:33:32;;;;;;;0.00;0.00;;;;;;;17.28;100.00;101619.28;5067270;28;20487;-48
2023/08/24 04:35:58;;;;;;;0.00;0.00;;;;;;;17.27;100.00;101623.06;5067232;28;20036;-49
2023/08/24 04:38:24;;;;;;;0.00;0.00;;;;;;;17.28;100.00;101624.72;5070849;28;20046;-47
2023/08/24 04:40:53;;;;;;;0.00;0.00;;;;;;;17.30;100.00;101622.63;5037098;28;20043;-46
2023/08/24 04:43:21;;;;;;;0.00;0.00;;;;;;;17.34;100.00;101614.88;5052864;28;20108;-47
2023/08/24 04:45:52;;;;;;;0.00;0.00;;;;;;;17.38;100.00;101612.56;5060183;28;20099;-47
2023/08/24 04:48:18;;;;;;;0.00;0.00;;;;;;;17.46;100.00;101604.22;5062229;28;20031;-48
2023/08/24 04:50:44;;;;;;;0.00;0.00;;;;;;;17.43;100.00;101604.63;5071544;28;20024;-48
2023/08/24 04:53:12;;;;;;;0.00;0.00;;;;;;;17.42;100.00;101608.41;5056117;28;20024;-46
2023/08/24 04:55:37;;;;;;;0.00;0.00;;;;;;;17.47;100.00;101600.44;5046033;28;20035;-50
2023/08/24 04:58:03;;;;;;;0.00;0.00;;;;;;;17.46;100.00;101591.47;5081576;28;20104;-48
2023/08/24 05:00:28;;;;;;;0.00;0.00;;;;;;;17.51;100.00;101588.13;5074422;28;20135;-50
2023/08/24 05:02:54;;;;;;;0.00;0.00;;;;;;;17.57;100.00;101594.59;5082352;28;20497;-48
2023/08/24 05:05:20;;;;;;;0.00;0.00;;;;;;;17.58;100.00;101585.38;5072115;28;20466;-48
2023/08/24 05:07:45;;;;;;;0.00;0.00;;;;;;;17.63;100.00;101572.81;5094342;28;20028;-47
2023/08/24 05:10:11;;;;;;;0.00;0.00;;;;;;;17.63;100.00;101567.34;5094241;28;20384;-45
2023/08/24 05:12:36;;;;;;;0.00;0.00;;;;;;;17.61;100.00;101564.00;5094782;28;20031;-47
2023/08/24 05:15:02;;;;;;;0.00;0.00;;;;;;;17.57;100.00;101565.50;5072987;28;20047;-49
2023/08/24 05:17:28;;;;;;;0.00;0.00;;;;;;;17.51;100.00;101574.50;5055152;28;20029;-45
2023/08/24 05:19:54;;;;;;;0.00;0.00;;;;;;;17.56;100.00;101577.41;5073344;28;20479;-46
2023/08/24 05:22:20;;;;;;;0.00;0.00;;;;;;;17.65;100.00;101568.00;5055899;28;20406;-46
2023/08/24 05:24:46;;;;;;;0.00;0.00;;;;;;;17.71;100.00;101569.84;5054814;28;20045;-46
2023/08/24 05:27:11;;;;;;;0.00;0.00;;;;;;;17.78;100.00;101567.97;5088775;28;20348;-45
2023/08/24 05:29:37;;;;;;;0.00;0.00;;;;;;;17.80;100.00;101558.78;5092441;28;20035;-47
2023/08/24 05:32:02;;;;;;;0.00;0.00;;;;;;;17.87;100.00;101559.59;5071966;28;20033;-44
2023/08/24 05:34:28;;;;;;;0.00;0.00;;;;;;;17.82;100.00;101548.50;5072285;28;20028;-47
2023/08/24 05:36:53;;;;;;;0.00;0.00;;;;;;;17.87;100.00;101551.44;5071889;28;20028;-47
2023/08/24 05:39:19;;;;;;;0.00;0.00;;;;;;;17.97;100.00;101547.22;5068775;28;20017;-48
2023/08/24 05:41:44;;;;;;;0.00;0.00;;;;;;;18.14;100.00;101547.59;5069906;28;20068;-47
2023/08/24 05:44:09;;;;;;;0.10;0.00;;;;;;;18.37;100.00;101540.78;5070667;28;20032;-45
2023/08/24 05:46:35;;;;;;;0.00;0.00;;;;;;;18.56;100.00;101534.41;5070848;28;20546;-46
2023/08/24 05:49:00;;;;;;;0.00;0.00;;;;;;;19.07;100.00;101540.84;5071556;28;20450;-48
2023/08/24 05:51:25;;;;;;;0.00;0.00;;;;;;;19.52;100.00;101522.38;5071876;28;20030;-50
2023/08/24 05:53:55;;;;;;;0.00;0.00;;;;;;;20.01;100.00;101505.28;5076001;28;20123;-47
2023/08/24 05:56:23;;;;;;;0.00;0.00;;;;;;;20.42;100.00;101481.84;5076829;28;20092;-45
2023/08/24 05:58:49;;;;;;;0.08;0.00;;;;;;;20.58;100.00;101475.75;5031541;28;20041;-47
2023/08/24 06:01:14;;;;;;;0.00;0.00;;;;;;;20.82;100.00;101466.53;5048092;28;20071;-49
2023/08/24 06:03:40;;;;;;;0.00;0.00;;;;;;;21.17;100.00;101468.50;5053851;28;20097;-47
2023/08/24 06:06:05;;;;;;;0.00;0.00;;;;;;;21.56;100.00;101471.59;5069101;28;20033;-45
2023/08/24 06:08:31;;;;;;;0.00;0.00;;;;;;;21.89;100.00;101453.69;5063398;28;20086;-47
2023/08/24 06:10:58;;;;;;;0.00;0.00;;;;;;;22.08;100.00;101452.41;5037334;28;20021;-50
2023/08/24 06:13:23;;;;;;;0.00;0.00;;;;;;;22.31;100.00;101436.97;5082404;28;20043;-46
2023/08/24 06:15:49;;;;;;;0.00;0.00;;;;;;;22.57;100.00;101436.38;5069827;28;20032;-46
2023/08/24 06:18:14;;;;;;;0.00;0.00;;;;;;;22.80;100.00;101431.78;5050767;28;20126;-45
2023/08/24 06:20:39;;;;;;;0.00;0.00;;;;;;;22.95;100.00;101429.28;5069273;28;20115;-46
2023/08/24 06:23:05;;;;;;;0.00;0.00;;;;;;;23.13;100.00;101430.97;5084770;28;20031;-46
2023/08/24 06:25:31;;;;;;;0.00;0.00;;;;;;;23.14;100.00;101416.16;5069228;28;20086;-50
2023/08/24 06:27:58;;;;;;;0.00;0.00;;;;;;;23.36;100.00;101418.97;5068012;28;20416;-47
2023/08/24 06:30:24;;;;;;;0.00;0.00;;;;;;;23.47;100.00;101414.44;5068867;28;20039;-45
2023/08/24 06:32:50;;;;;;;0.00;0.00;;;;;;;23.76;100.00;101409.63;5068963;28;20036;-48
2023/08/24 06:35:15;;;;;;;0.00;0.00;;;;;;;23.82;100.00;101416.00;5067713;28;20057;-47
2023/08/24 06:37:41;;;;;;;0.00;0.00;;;;;;;24.05;100.00;101423.97;5068389;28;20020;-47
2023/08/24 06:40:08;;;;;;;0.00;0.00;;;;;;;24.03;100.00;101428.06;5068241;28;20068;-45
2023/08/24 06:42:33;;;;;;;0.00;0.00;;;;;;;23.93;100.00;101433.44;5068967;28;20035;-48
2023/08/24 06:44:59;;;;;;;0.00;0.00;;;;;;;24.27;100.00;101443.19;5069793;28;20025;-48
2023/08/24 06:47:24;;;;;;;0.00;0.00;;;;;;;24.66;100.00;101453.22;5054791;28;20395;-47
2023/08/24 06:49:50;;;;;;;0.00;0.00;;;;;;;25.27;100.00;101442.69;5063092;28;20032;-44
2023/08/24 06:52:16;;;;;;;0.00;0.00;;;;;;;25.41;100.00;101426.53;5067416;28;20029;-47
2023/08/24 06:54:41;;;;;;;0.00;0.00;;;;;;;25.82;100.00;101416.50;5068330;28;20036;-49
2023/08/24 06:57:06;;;;;;;0.00;0.00;;;;;;;26.08;100.00;101416.63;5079575;28;20471;-46
2023/08/24 06:59:32;;;;;;;0.00;0.00;;;;;;;26.04;100.00;101408.09;5062059;28;20024;-47
2023/08/24 07:01:57;;;;;;;0.00;0.00;;;;;;;26.63;100.00;101403.22;5073259;28;20040;-49
2023/08/24 07:04:23;;;;;;;0.00;0.00;;;;;;;26.67;100.00;101412.56;5069704;28;20074;-48
2023/08/24 07:06:48;;;;;;;0.00;0.00;;;;;;;26.94;100.00;101409.53;5068220;28;20371;-49
2023/08/24 07:09:15;;;;;;;0.00;0.00;;;;;;;27.23;100.00;101414.50;5062571;28;20035;-47
2023/08/24 07:11:40;;;;;;;0.00;0.00;;;;;;;27.44;100.00;101416.09;5064713;28;20525;-47
2023/08/24 07:14:06;;;;;;;0.00;0.00;;;;;;;26.98;100.00;101410.63;5057017;28;20016;-47
2023/08/24 07:16:31;;;;;;;0.00;0.00;;;;;;;26.81;100.00;101415.63;5042197;28;20021;-48
2023/08/24 07:18:57;;;;;;;0.00;0.00;;;;;;;26.39;100.00;101408.41;5056369;28;20136;-46
2023/08/24 07:21:22;;;;;;;0.00;0.00;;;;;;;25.72;100.00;101399.94;5068450;28;20035;-48
2023/08/24 07:23:47;;;;;;;0.00;0.00;;;;;;;25.67;100.00;101393.56;5063558;28;20403;-50
2023/08/24 07:26:13;;;;;;;0.03;0.00;;;;;;;25.70;100.00;101390.28;5073831;28;20127;-47
2023/08/24 07:28:38;;;;;;;0.00;0.00;;;;;;;24.75;100.00;101389.19;5078557;28;20495;-46
2023/08/24 07:31:11;;;;;;;0.00;0.00;;;;;;;24.19;100.00;101383.13;5056040;28;20353;-46
2023/08/24 07:33:38;;;;;;;0.00;0.00;;;;;;;23.51;100.00;101381.78;5067976;28;20367;-47
2023/08/24 07:36:04;;;;;;;0.00;0.00;;;;;;;23.38;100.00;101383.84;5066457;28;20446;-47
2023/08/24 07:38:30;;;;;;;0.00;0.00;;;;;;;22.75;100.00;101385.91;5050192;28;20021;-47
2023/08/24 07:40:56;;;;;;;0.00;0.00;;;;;;;22.60;100.00;101385.66;5061946;28;20498;-45
2023/08/24 07:43:22;;;;;;;0.00;0.00;;;;;;;22.84;100.00;101396.47;5069608;28;20016;-44
2023/08/24 07:45:47;;;;;;;0.00;0.00;;;;;;;23.15;100.00;101384.06;5066721;28;20109;-46
2023/08/24 07:48:13;;;;;;;0.00;0.00;;;;;;;23.30;100.00;101381.53;5059764;28;20409;-46
2023/08/24 07:50:38;;;;;;;0.00;0.00;;;;;;;23.60;100.00;101385.75;5062813;28;20036;-47
2023/08/24 07:53:04;;;;;;;0.00;0.00;;;;;;;23.66;100.00;101381.97;5050057;28;20029;-47
2023/08/24 07:55:30;;;;;;;0.00;0.00;;;;;;;23.48;100.00;101382.28;5065533;28;20021;-47
2023/08/24 07:57:55;;;;;;;0.00;0.00;;;;;;;23.44;100.00;101380.06;5066702;28;20095;-49
2023/08/24 08:00:21;;;;;;;0.00;0.00;;;;;;;23.36;100.00;101369.53;5062276;28;20159;-47
2023/08/24 08:02:49;;;;;;;0.00;0.00;;;;;;;22.88;100.00;101371.03;5074742;28;20185;-45
2023/08/24 08:05:15;;;;;;;0.00;0.00;;;;;;;22.88;100.00;101361.94;5077020;28;20055;-47
2023/08/24 08:07:40;;;;;;;0.00;0.00;;;;;;;22.78;100.00;101377.16;5061062;28;20028;-47
2023/08/24 08:10:06;;;;;;;0.00;0.00;;;;;;;22.61;100.00;101367.28;5040000;28;20025;-47
2023/08/24 08:12:32;;;;;;;0.00;0.00;;;;;;;22.66;100.00;101353.66;5073833;28;20129;-46
2023/08/24 08:14:57;;;;;;;0.00;0.00;;;;;;;22.63;100.00;101349.47;5067406;28;20481;-46
2023/08/24 08:17:23;;;;;;;0.00;0.00;;;;;;;22.61;100.00;101361.78;5055561;28;20366;-48
2023/08/24 08:19:48;;;;;;;0.00;0.00;;;;;;;22.38;100.00;101357.28;5058727;28;20047;-47
2023/08/24 08:22:14;;;;;;;0.00;0.00;;;;;;;22.31;100.00;101358.28;5067384;28;20039;-49
2023/08/24 08:24:39;;;;;;;0.00;0.00;;;;;;;22.41;100.00;101340.31;5073328;28;20028;-47
2023/08/24 08:27:05;;;;;;;0.00;0.00;;;;;;;22.57;100.00;101345.00;5079915;28;20032;-44
2023/08/24 08:29:30;;;;;;;0.00;0.00;;;;;;;22.35;100.00;101337.53;5079727;28;20020;-45
2023/08/24 08:31:55;;;;;;;0.00;0.00;;;;;;;22.40;100.00;101320.31;5061492;28;20116;-46
2023/08/24 08:34:21;;;;;;;0.00;0.00;;;;;;;22.20;100.00;101315.34;5072716;28;20166;-43
2023/08/24 08:36:46;;;;;;;0.00;0.00;;;;;;;22.24;100.00;101319.22;5073418;28;20025;-48
2023/08/24 08:39:13;;;;;;;0.00;0.00;;;;;;;22.25;100.00;101337.34;5073195;28;20024;-48
2023/08/24 08:41:42;;;;;;;0.00;0.00;;;;;;;22.15;100.00;101331.66;5073093;28;20033;-47
2023/08/24 08:44:09;;;;;;;0.00;0.00;;;;;;;22.35;100.00;101325.69;5071102;28;20043;-48
2023/08/24 08:46:34;;;;;;;0.00;0.00;;;;;;;22.47;100.00;101334.69;5071895;28;20479;-44
2023/08/24 08:49:00;;;;;;;0.00;0.00;;;;;;;22.51;100.00;101324.91;5070919;28;20028;-48
2023/08/24 08:51:27;;;;;;;0.00;0.00;;;;;;;22.50;100.00;101306.75;5072706;28;20040;-47
2023/08/24 08:53:53;;;;;;;0.00;0.00;;;;;;;22.59;100.00;101315.38;5072456;28;20108;-47
2023/08/24 08:56:18;;;;;;;0.00;0.00;;;;;;;22.73;100.00;101307.66;5053074;28;20033;-49
2023/08/24 08:58:46;;;;;;;0.00;0.00;;;;;;;22.85;100.00;101300.13;5062048;28;20020;-48
2023/08/24 09:01:11;;;;;;;0.00;0.00;;;;;;;22.93;100.00;101305.22;5054672;28;20036;-50
2023/08/24 09:03:39;;;;;;;0.00;0.00;;;;;;;22.92;100.00;101309.03;5054373;28;20032;-47
2023/08/24 09:06:04;;;;;;;;;;;;;;;22.86;100.00;101311.97;5073055;28;20025;-46
2023/08/24 09:08:30;;;;;;;0.00;0.00;;;;;;;22.96;100.00;101314.84;5071670;28;19909;-47
2023/08/24 09:10:58;;;;;;;0.00;0.00;;;;;;;22.87;100.00;101316.38;5054099;28;20032;-47
2023/08/24 09:13:24;;;;;;;0.00;0.00;;;;;;;23.09;100.00;101319.16;5071301;28;20020;-46
2023/08/24 09:15:52;;;;;;;0.00;0.00;;;;;;;22.95;100.00;101324.16;5072266;28;20439;-48
2023/08/24 09:18:17;;;;;;;0.00;0.00;;;;;;;22.78;100.00;101340.66;5072284;28;20025;-48
2023/08/24 09:20:43;;;;;;;0.00;0.00;;;;;;;22.84;100.00;101350.63;5072676;28;20036;-47
2023/08/24 09:23:18;;;;;;;0.00;0.00;;;;;;;22.76;100.00;101354.63;5071008;28;20032;-45
2023/08/24 09:25:47;;;;;;;0.00;0.00;;;;;;;22.79;100.00;101345.06;5071998;28;20322;-47
2023/08/24 09:28:13;;;;;;;0.00;0.00;;;;;;;22.83;100.00;101343.50;5070144;28;20498;-44
2023/08/24 09:30:38;;;;;;;0.00;0.00;;;;;;;22.89;100.00;101347.13;5055499;28;20035;-47
2023/08/24 09:33:09;;;;;;;0.00;0.00;;;;;;;22.88;100.00;101332.59;5077134;28;20028;-46
2023/08/24 09:35:38;;;;;;;0.00;0.00;;;;;;;22.82;100.00;101333.59;5073715;28;20059;-43
2023/08/24 09:38:18;;;;;;;0.00;0.00;;;;;;;22.72;100.00;101333.44;5074052;28;20124;-44
2023/08/24 09:40:48;;;;;;;0.15;0.00;;;;;;;22.60;100.00;101330.78;5057907;28;20039;-44
2023/08/24 09:43:14;;;;;;;0.00;0.00;;;;;;;22.57;100.00;101318.41;5060314;28;20024;-43
2023/08/24 09:45:49;;;;;;;0.00;0.00;;;;;;;22.51;100.00;101322.16;5072241;28;20536;-44
2023/08/24 09:48:14;;;;;;;0.00;0.00;;;;;;;22.48;100.00;101319.88;5054460;28;20046;-43
2023/08/24 09:50:40;;;;;;;0.00;0.00;;;;;;;22.36;100.00;101319.16;5054252;28;20483;-54
2023/08/24 09:53:05;;;;;;;0.00;0.00;;;;;;;22.38;100.00;101318.88;5053717;28;20098;-45
2023/08/24 09:55:34;;;;;;;0.00;0.00;;;;;;;22.30;100.00;101329.22;5071913;28;20024;-44
2023/08/24 09:58:00;;;;;;;0.00;0.00;;;;;;;22.33;100.00;101328.72;5071721;28;20032;-47
2023/08/24 10:00:27;;;;;;;0.00;0.00;;;;;;;22.27;100.00;101335.16;5053452;28;20027;-46
2023/08/24 10:02:53;;;;;;;0.00;0.00;;;;;;;22.27;100.00;101337.91;5071760;28;20068;-47
2023/08/24 10:05:24;;;;;;;0.00;0.00;;;;;;;22.30;100.00;101350.28;5060741;28;20020;-44
2023/08/24 10:07:52;;;;;;;0.00;0.00;;;;;;;22.20;100.00;101348.22;5075040;28;20482;-46
2023/08/24 10:10:19;;;;;;;0.00;0.00;;;;;;;22.19;100.00;101337.50;5071288;28;20347;-46
2023/08/24 10:12:48;;;;;;;0.00;0.00;;;;;;;22.31;100.00;101336.34;5071616;28;20104;-46
2023/08/24 10:15:14;;;;;;;0.00;0.00;;;;;;;22.32;100.00;101338.00;5054687;28;20029;-46
2023/08/24 10:17:40;;;;;;;0.00;0.00;;;;;;;22.21;100.00;101333.44;5036787;28;20020;-46
2023/08/24 10:20:09;;;;;;;0.00;0.00;;;;;;;22.31;100.00;101341.00;5071660;28;20074;-43
2023/08/24 10:22:36;;;;;;;0.00;0.00;;;;;;;22.33;100.00;101334.19;5071586;28;20558;-44
2023/08/24 10:25:02;;;;;;;0.00;0.00;;;;;;;22.45;100.00;101342.34;5071215;28;20024;-46
2023/08/24 10:27:30;;;;;;;0.00;0.00;;;;;;;22.46;100.00;101351.38;5074339;28;20111;-47
2023/08/24 10:29:57;;;;;;;0.00;0.00;;;;;;;22.55;100.00;101369.94;5090504;28;20483;-46
2023/08/24 10:32:23;;;;;;;0.00;0.00;;;;;;;22.69;100.00;101380.56;5073181;28;20091;-43
2023/08/24 10:34:49;;;;;;;0.00;0.00;;;;;;;22.75;100.00;101374.09;5070931;28;20031;-48
2023/08/24 10:37:15;;;;;;;0.00;0.00;;;;;;;22.71;100.00;101361.97;5070723;28;20115;-42
2023/08/24 10:39:45;;;;;;;0.00;0.00;;;;;;;22.75;100.00;101336.50;5071226;28;20116;-45
2023/08/24 10:42:12;;;;;;;0.00;0.00;;;;;;;22.97;100.00;101316.53;5059302;28;20049;-44
2023/08/24 10:44:39;;;;;;;0.00;0.00;;;;;;;23.00;100.00;101316.03;5084393;28;20101;-45
2023/08/24 10:47:22;;;;;;;0.00;0.00;;;;;;;23.19;100.00;101324.78;5083407;28;20032;-46
2023/08/24 10:50:00;;;;;;;0.00;0.00;;;;;;;23.54;100.00;101320.81;5064328;28;20035;-44
2023/08/24 10:52:33;;;;;;;0.00;0.00;;;;;;;23.85;100.00;101322.84;5046533;28;20112;-46
2023/08/24 10:55:01;;;;;;;0.00;0.00;;;;;;;23.94;100.00;101305.91;5077499;28;20035;-48
2023/08/24 10:57:43;;;;;;;0.00;0.00;;;;;;;23.90;100.00;101302.84;5092346;28;20028;-45
2023/08/24 11:00:11;;;;;;;0.00;0.00;;;;;;;23.82;100.00;101289.56;5092275;28;20143;-47
2023/08/24 11:02:43;;;;;;;;;;;;;;;23.79;100.00;101279.91;5074089;28;20085;-49
2023/08/24 11:05:27;;;;;;;0.00;0.00;;;;;;;23.65;100.00;101293.22;5091096;28;19943;-48
2023/08/24 11:08:05;;;;;;;0.00;0.00;;;;;;;23.56;100.00;101285.69;5091246;28;20057;-45
2023/08/24 11:10:43;;;;;;;0.00;0.00;;;;;;;23.48;100.00;101272.41;5056052;28;20028;-47
2023/08/24 11:13:14;;;;;;;0.00;0.00;;;;;;;23.54;100.00;101265.88;5090994;28;20489;-46